createdAt,value
2023-03-16T00:00:28.913Z,8.25
2023-03-16T00:03:20.616Z,19.65
2023-03-16T00:06:06.361Z,9.55
2023-03-16T00:08:52.189Z,21.00
2023-03-16T00:11:37.653Z,12.82
2023-03-16T00:14:23.031Z,19.05
2023-03-16T00:17:08.724Z,9.50
2023-03-16T00:19:57.174Z,8.70
2023-03-16T00:22:42.522Z,13.50
2023-03-16T00:25:28.000Z,7.72
2023-03-16T00:28:14.082Z,7.95
2023-03-16T00:30:59.480Z,8.85
2023-03-16T00:33:45.144Z,9.13
2023-03-16T00:36:33.861Z,5.97
2023-03-16T00:39:19.116Z,11.88
2023-03-16T00:42:05.871Z,11.35
2023-03-16T00:44:57.098Z,8.48
2023-03-16T00:47:42.519Z,8.07
2023-03-16T00:50:28.715Z,11.32
2023-03-16T00:53:14.232Z,9.85
2023-03-16T00:56:02.943Z,10.02
2023-03-16T00:58:49.441Z,11.25
2023-03-16T01:01:35.142Z,9.57
2023-03-16T01:04:21.901Z,4.75
2023-03-16T01:07:11.017Z,7.38
2023-03-16T01:09:58.219Z,8.25
2023-03-16T01:12:45.486Z,11.73
2023-03-16T01:15:31.133Z,5.93
2023-03-16T01:18:16.564Z,5.25
2023-03-16T01:21:10.413Z,4.22
2023-03-16T01:23:56.109Z,5.53
2023-03-16T01:26:41.654Z,8.23
2023-03-16T01:29:27.246Z,6.55
2023-03-16T01:32:15.029Z,6.00
2023-03-16T01:35:01.220Z,11.02
2023-03-16T01:37:46.801Z,5.32
2023-03-16T01:40:35.083Z,3.85
2023-03-16T01:43:24.081Z,9.00
2023-03-16T01:46:24.900Z,6.25
2023-03-16T01:52:10.099Z,8.25
2023-03-16T01:55:09.027Z,9.93
2023-03-16T01:57:54.919Z,8.20
2023-03-16T02:00:42.098Z,8.52
2023-03-16T02:03:36.512Z,5.65
2023-03-16T02:06:34.481Z,10.27
2023-03-16T02:09:20.537Z,7.85
2023-03-16T02:12:07.797Z,8.35
2023-03-16T02:14:58.712Z,8.00
2023-03-16T02:17:46.232Z,11.40
2023-03-16T02:21:13.752Z,9.10
2023-03-16T02:24:02.394Z,7.38
2023-03-16T02:26:55.074Z,8.88
2023-03-16T02:29:56.582Z,9.15
2023-03-16T02:32:47.128Z,6.40
2023-03-16T02:35:33.758Z,8.60
2023-03-16T02:38:20.829Z,8.98
2023-03-16T02:41:20.974Z,11.30
2023-03-16T02:44:16.692Z,8.48
2023-03-16T02:47:20.940Z,7.18
2023-03-16T02:50:09.968Z,8.10
2023-03-16T02:52:55.573Z,12.77
2023-03-16T02:55:41.702Z,9.38
2023-03-16T02:58:26.816Z,6.78
2023-03-16T03:01:12.221Z,9.85
2023-03-16T03:03:58.582Z,10.70
2023-03-16T03:06:44.239Z,8.63
2023-03-16T03:09:32.276Z,9.32
2023-03-16T03:12:17.830Z,7.60
2023-03-16T03:15:03.938Z,14.18
2023-03-16T03:17:56.535Z,10.93
2023-03-16T03:20:42.270Z,10.88
2023-03-16T03:23:28.846Z,11.23
2023-03-16T03:26:15.429Z,8.00
2023-03-16T03:29:02.538Z,9.88
2023-03-16T03:31:47.991Z,11.05
2023-03-16T03:34:34.233Z,12.38
2023-03-16T03:37:19.979Z,12.07
2023-03-16T03:40:06.532Z,10.38
2023-03-16T03:42:52.072Z,12.30
2023-03-16T03:45:37.611Z,8.77
2023-03-16T03:48:24.259Z,10.10
2023-03-16T03:51:10.001Z,9.30
2023-03-16T03:54:04.174Z,8.38
2023-03-16T03:57:15.729Z,13.10
2023-03-16T04:00:01.252Z,17.02
2023-03-16T04:02:58.853Z,12.18
2023-03-16T04:05:51.948Z,11.20
2023-03-16T04:08:37.679Z,9.75
2023-03-16T04:11:27.103Z,8.15
2023-03-16T04:14:13.008Z,6.32
2023-03-16T04:16:59.453Z,7.32
2023-03-16T04:19:45.358Z,7.80
2023-03-16T04:22:33.973Z,9.85
2023-03-16T04:25:19.631Z,8.60
2023-03-16T04:28:08.238Z,8.82
2023-03-16T04:31:01.933Z,8.50
2023-03-16T04:33:56.186Z,7.65
2023-03-16T04:36:42.616Z,8.82
2023-03-16T04:39:29.495Z,5.85
2023-03-16T04:42:15.234Z,10.25
2023-03-16T04:45:01.114Z,9.07
2023-03-16T04:47:46.573Z,6.95
2023-03-16T04:50:32.735Z,8.23
2023-03-16T04:53:24.330Z,10.85
2023-03-16T04:56:18.498Z,7.68
2023-03-16T04:59:07.849Z,8.60
2023-03-16T05:02:23.013Z,8.25
2023-03-16T05:05:09.088Z,9.05
2023-03-16T05:07:57.309Z,10.20
2023-03-16T05:10:47.925Z,17.70
2023-03-16T05:13:34.140Z,9.38
2023-03-16T05:16:19.725Z,9.70
2023-03-16T05:19:05.501Z,6.35
2023-03-16T05:21:53.291Z,9.43
2023-03-16T05:24:39.031Z,6.97
2023-03-16T05:27:24.821Z,7.57
2023-03-16T05:30:13.335Z,9.13
2023-03-16T05:32:59.152Z,9.57
2023-03-16T05:35:51.455Z,7.90
2023-03-16T05:38:39.516Z,7.03
2023-03-16T05:41:28.497Z,7.63
2023-03-16T05:44:29.648Z,10.23
2023-03-16T05:47:37.798Z,12.43
2023-03-16T05:50:26.608Z,11.13
2023-03-16T05:53:12.122Z,7.80
2023-03-16T05:56:00.112Z,10.40
2023-03-16T05:58:46.051Z,11.23
2023-03-16T06:01:31.480Z,12.25
2023-03-16T06:04:17.136Z,9.38
2023-03-16T06:07:02.968Z,13.10
2023-03-16T06:09:49.362Z,13.70
2023-03-16T06:12:35.263Z,13.30
2023-03-16T06:15:25.043Z,10.10
2023-03-16T06:18:11.403Z,6.45
2023-03-16T06:20:57.452Z,12.52
2023-03-16T06:23:43.837Z,14.60
2023-03-16T06:26:29.709Z,16.35
2023-03-16T06:29:15.408Z,15.07
2023-03-16T06:32:01.304Z,14.13
2023-03-16T06:34:48.072Z,8.60
2023-03-16T06:37:34.271Z,9.50
2023-03-16T06:40:25.300Z,13.43
2023-03-16T06:43:10.821Z,10.95
2023-03-16T06:45:56.336Z,17.15
2023-03-16T06:48:42.361Z,7.63
2023-03-16T06:51:28.709Z,11.30
2023-03-16T06:54:14.787Z,11.38
2023-03-16T06:57:01.531Z,13.95
2023-03-16T06:59:47.064Z,12.10
2023-03-16T07:02:35.723Z,12.93
2023-03-16T07:05:22.088Z,15.05
2023-03-16T07:08:10.207Z,11.02
2023-03-16T07:10:55.692Z,16.30
2023-03-16T07:13:41.813Z,14.88
2023-03-16T07:16:28.550Z,18.75
2023-03-16T07:19:16.712Z,11.25
2023-03-16T07:22:02.921Z,12.07
2023-03-16T07:24:57.227Z,12.27
2023-03-16T07:27:46.660Z,9.60
2023-03-16T07:30:37.585Z,11.77
2023-03-16T07:33:23.570Z,15.18
2023-03-16T07:36:10.698Z,13.02
2023-03-16T07:39:01.956Z,17.10
2023-03-16T07:41:47.640Z,12.70
2023-03-16T07:44:36.046Z,12.65
2023-03-16T07:47:23.348Z,16.55
2023-03-16T07:50:16.962Z,20.88
2023-03-16T07:53:05.286Z,20.10
2023-03-16T07:55:53.812Z,9.48
2023-03-16T07:58:39.735Z,11.07
2023-03-16T08:01:25.194Z,12.48
2023-03-16T08:04:12.381Z,10.48
2023-03-16T08:07:01.123Z,4.30
2023-03-16T08:09:59.978Z,10.93
2023-03-16T08:12:52.371Z,7.40
2023-03-16T08:15:38.369Z,12.73
2023-03-16T08:18:30.355Z,10.55
2023-03-16T08:21:17.359Z,13.02
2023-03-16T08:24:02.844Z,8.45
2023-03-16T08:26:48.138Z,12.05
2023-03-16T08:29:34.596Z,12.23
2023-03-16T08:32:23.995Z,9.13
2023-03-16T08:35:14.002Z,11.07
2023-03-16T08:37:59.866Z,8.27
2023-03-16T08:40:48.575Z,6.53
2023-03-16T08:43:37.515Z,10.50
2023-03-16T08:46:24.281Z,6.65
2023-03-16T08:49:14.964Z,10.63
2023-03-16T08:52:03.212Z,4.57
2023-03-16T08:55:02.064Z,8.68
2023-03-16T08:57:49.698Z,9.73
2023-03-16T09:00:35.263Z,11.60
2023-03-16T09:03:20.720Z,9.55
2023-03-16T09:06:09.822Z,11.05
2023-03-16T09:08:56.240Z,10.75
2023-03-16T09:11:42.215Z,10.38
2023-03-16T09:14:27.937Z,6.95
2023-03-16T09:17:13.645Z,7.40
2023-03-16T09:20:11.567Z,6.80
2023-03-16T09:23:05.093Z,6.45
2023-03-16T09:25:51.138Z,7.00
2023-03-16T09:28:38.926Z,7.10
2023-03-16T09:31:24.564Z,5.40
2023-03-16T09:34:10.610Z,8.68
2023-03-16T09:36:56.478Z,2.47
2023-03-16T09:39:42.151Z,7.40
2023-03-16T09:42:43.873Z,2.92
2023-03-16T09:45:36.094Z,5.80
2023-03-16T09:48:22.132Z,2.88
2023-03-16T09:51:23.043Z,4.50
2023-03-16T09:54:26.580Z,4.10
2023-03-16T09:57:18.272Z,6.10
2023-03-16T10:00:42.885Z,6.97
2023-03-16T10:03:52.227Z,10.27
2023-03-16T10:06:58.854Z,7.28
2023-03-16T10:10:14.818Z,2.90
2023-03-16T10:13:02.352Z,9.30
2023-03-16T10:15:49.480Z,5.05
2023-03-16T10:18:42.882Z,6.32
2023-03-16T10:21:33.351Z,5.18
2023-03-16T10:24:41.329Z,5.95
2023-03-16T10:27:31.511Z,2.95
2023-03-16T10:30:31.170Z,5.80
2023-03-16T10:33:26.563Z,4.10
2023-03-16T10:36:26.188Z,4.75
2023-03-16T10:39:14.550Z,6.85
2023-03-16T10:42:00.322Z,1.77
2023-03-16T10:45:01.030Z,4.00
2023-03-16T10:47:47.496Z,3.10
2023-03-16T10:50:34.249Z,1.13
2023-03-16T10:53:29.978Z,7.25
2023-03-16T10:56:25.464Z,6.18
2023-03-16T10:59:35.215Z,4.20
2023-03-16T11:02:25.112Z,3.75
2023-03-16T11:05:24.793Z,3.45
2023-03-16T11:08:20.425Z,2.67
2023-03-16T11:11:32.631Z,3.53
2023-03-16T11:14:26.073Z,2.25
2023-03-16T11:17:36.493Z,4.30
2023-03-16T11:20:26.538Z,7.95
2023-03-16T11:23:18.232Z,8.95
2023-03-16T11:26:11.869Z,7.55
2023-03-16T11:29:09.719Z,4.38
2023-03-16T11:32:00.888Z,2.65
2023-03-16T11:34:48.531Z,3.88
2023-03-16T11:37:55.623Z,8.25
2023-03-16T11:40:47.521Z,3.60
2023-03-16T11:43:49.461Z,2.73
2023-03-16T11:46:52.237Z,1.65
2023-03-16T11:49:56.892Z,3.33
2023-03-16T11:53:05.366Z,4.47
2023-03-16T11:55:57.197Z,3.92
2023-03-16T11:58:49.305Z,1.48
2023-03-16T12:02:03.744Z,1.45
2023-03-16T12:04:55.406Z,6.65
2023-03-16T12:08:19.035Z,3.63
2023-03-16T12:11:13.072Z,7.43
2023-03-16T12:14:24.433Z,1.80
2023-03-16T12:17:20.641Z,5.72
2023-03-16T12:20:18.700Z,7.85
2023-03-16T12:23:13.342Z,4.78
2023-03-16T12:26:00.874Z,4.38
2023-03-16T12:28:48.294Z,3.83
2023-03-16T12:32:09.148Z,3.13
2023-03-16T12:35:19.600Z,2.92
2023-03-16T12:38:47.618Z,0.85
2023-03-16T12:41:52.460Z,3.38
2023-03-16T12:44:55.405Z,3.85
2023-03-16T12:48:04.210Z,2.03
2023-03-16T12:50:52.264Z,1.15
2023-03-16T12:53:45.461Z,2.10
2023-03-16T12:56:43.371Z,2.35
2023-03-16T12:59:36.724Z,2.20
2023-03-16T13:02:34.736Z,8.95
2023-03-16T13:05:32.884Z,4.93
2023-03-16T13:08:21.195Z,3.35
2023-03-16T13:11:09.676Z,1.55
2023-03-16T13:14:01.089Z,2.40
2023-03-16T13:16:47.884Z,3.03
2023-03-16T13:19:37.808Z,2.95
2023-03-16T13:22:23.351Z,3.38
2023-03-16T13:25:16.597Z,6.82
2023-03-16T13:28:02.329Z,3.90
2023-03-16T13:30:49.175Z,2.67
2023-03-16T13:33:40.816Z,6.70
2023-03-16T13:36:29.195Z,7.00
2023-03-16T13:39:27.271Z,16.98
2023-03-16T13:42:18.761Z,9.98
2023-03-16T13:45:15.891Z,6.28
2023-03-16T13:48:05.639Z,4.68
2023-03-16T13:50:53.937Z,5.25
2023-03-16T13:53:42.757Z,6.32
2023-03-16T13:56:29.515Z,6.63
2023-03-16T13:59:15.920Z,3.58
2023-03-16T14:02:02.195Z,5.10
2023-03-16T14:04:48.061Z,2.00
2023-03-16T14:07:38.468Z,4.90
2023-03-16T14:10:29.662Z,10.82
2023-03-16T14:13:32.985Z,2.72
2023-03-16T14:16:20.068Z,1.88
2023-03-16T14:19:19.654Z,4.95
2023-03-16T14:22:06.731Z,5.63
2023-03-16T14:24:59.357Z,2.95
2023-03-16T14:27:46.832Z,8.77
2023-03-16T14:30:33.086Z,6.20
2023-03-16T14:33:41.323Z,8.68
2023-03-16T14:36:39.814Z,10.45
2023-03-16T14:39:29.047Z,4.50
2023-03-16T14:42:31.046Z,7.82
2023-03-16T14:45:17.629Z,6.85
2023-03-16T14:48:06.844Z,6.88
2023-03-16T14:50:58.588Z,3.90
2023-03-16T14:53:44.766Z,2.70
2023-03-16T14:56:34.905Z,4.35
2023-03-16T14:59:21.801Z,2.63
2023-03-16T15:02:16.363Z,3.53
2023-03-16T15:05:03.087Z,3.67
2023-03-16T15:07:54.753Z,13.57
2023-03-16T15:13:52.877Z,5.30
2023-03-16T15:16:38.637Z,7.30
2023-03-16T15:19:24.074Z,3.95
2023-03-16T15:22:12.525Z,3.08
2023-03-16T15:25:00.053Z,4.18
2023-03-16T15:27:45.516Z,2.60
2023-03-16T15:30:32.232Z,5.95
2023-03-16T15:33:18.020Z,2.25
2023-03-16T15:36:14.892Z,3.75
2023-03-16T15:39:02.126Z,6.55
2023-03-16T15:41:48.214Z,3.00
2023-03-16T15:44:33.762Z,6.20
2023-03-16T15:47:19.328Z,1.65
2023-03-16T15:50:06.019Z,11.38
2023-03-16T15:52:58.020Z,4.07
2023-03-16T15:55:47.187Z,4.10
2023-03-16T15:58:35.040Z,2.75
2023-03-16T16:01:23.517Z,9.65
2023-03-16T16:04:15.557Z,6.25
2023-03-16T16:07:02.866Z,7.40
2023-03-16T16:09:48.884Z,2.90
2023-03-16T16:12:34.702Z,3.15
2023-03-16T16:15:30.304Z,4.60
2023-03-16T16:18:32.004Z,2.60
2023-03-16T16:21:23.149Z,1.53
2023-03-16T16:24:10.978Z,2.22
2023-03-16T16:26:56.735Z,3.75
2023-03-16T16:29:42.251Z,1.10
2023-03-16T16:32:27.728Z,3.80
2023-03-16T16:35:19.646Z,3.63
2023-03-16T16:38:05.392Z,8.13
2023-03-16T16:40:53.335Z,6.53
2023-03-16T16:43:46.659Z,7.18
2023-03-16T16:48:32.454Z,5.68
2023-03-16T16:51:26.752Z,7.85
2023-03-16T16:54:18.304Z,6.18
2023-03-16T16:57:05.689Z,3.25
2023-03-16T16:59:51.592Z,4.90
2023-03-16T17:02:51.315Z,6.03
2023-03-16T17:05:37.323Z,6.00
2023-03-16T17:08:23.648Z,3.92
2023-03-16T17:11:16.914Z,3.72
2023-03-16T17:14:04.948Z,2.30
2023-03-16T17:16:51.868Z,6.05
2023-03-16T17:19:38.759Z,4.70
2023-03-16T17:22:29.685Z,3.70
2023-03-16T17:25:16.679Z,3.97
2023-03-16T17:28:02.578Z,4.45
2023-03-16T17:30:48.955Z,5.57
2023-03-16T17:33:37.588Z,9.90
2023-03-16T17:36:23.498Z,13.45
2023-03-16T17:39:36.943Z,13.13
2023-03-16T17:42:23.918Z,13.77
2023-03-16T17:45:18.615Z,13.20
2023-03-16T17:48:11.020Z,11.70
2023-03-16T17:50:56.799Z,9.30
2023-03-16T17:53:44.303Z,15.27
2023-03-16T17:56:33.053Z,17.50
2023-03-16T17:59:21.246Z,18.23
2023-03-16T18:02:56.649Z,21.30
2023-03-16T18:05:44.054Z,15.63
2023-03-16T18:08:30.582Z,17.38
2023-03-16T18:11:23.064Z,17.48
2023-03-16T18:17:07.778Z,30.02
2023-03-16T18:19:54.097Z,27.95
2023-03-16T18:22:39.926Z,19.35
2023-03-16T18:25:32.576Z,23.08
2023-03-16T18:28:19.725Z,24.45
2023-03-16T18:31:07.777Z,19.15
2023-03-16T18:33:59.713Z,28.20
2023-03-16T18:36:45.778Z,39.33
2023-03-16T18:39:31.867Z,41.03
2023-03-16T18:42:20.077Z,36.72
2023-03-16T18:45:06.803Z,35.95
2023-03-16T18:47:54.187Z,41.92
2023-03-16T18:50:43.663Z,47.75
2023-03-16T18:53:29.778Z,41.80
2023-03-16T18:56:22.325Z,43.03
2023-03-16T18:59:09.740Z,38.20
2023-03-16T19:01:58.414Z,44.17
2023-03-16T19:04:45.106Z,35.42
2023-03-16T19:07:40.059Z,29.33
2023-03-16T19:10:28.922Z,29.83
2023-03-16T19:13:21.239Z,33.20
2023-03-16T19:16:16.697Z,37.30
2023-03-16T19:19:02.957Z,27.30
2023-03-16T19:21:51.060Z,28.48
2023-03-16T19:24:54.341Z,33.42
2023-03-16T19:27:39.988Z,38.20
2023-03-16T19:30:29.740Z,36.63
2023-03-16T19:33:25.897Z,27.00
2023-03-16T19:36:32.509Z,19.23
2023-03-16T19:39:18.352Z,19.00
2023-03-16T19:42:04.448Z,13.63
2023-03-16T19:44:51.338Z,18.23
2023-03-16T19:47:37.134Z,23.08
2023-03-16T19:50:24.946Z,26.40
2023-03-16T19:53:19.077Z,23.23
2023-03-16T19:56:05.226Z,32.00
2023-03-16T19:58:53.645Z,35.45
2023-03-16T20:01:39.860Z,30.42
2023-03-16T20:04:27.532Z,30.98
2023-03-16T20:07:17.161Z,27.13
2023-03-16T20:10:02.722Z,27.65
2023-03-16T20:12:51.413Z,19.90
2023-03-16T20:15:37.622Z,19.50
2023-03-16T20:18:23.695Z,25.13
2023-03-16T20:21:15.407Z,32.63
2023-03-16T20:24:01.637Z,35.08
2023-03-16T20:26:51.406Z,37.63
2023-03-16T20:29:37.655Z,42.15
2023-03-16T20:32:56.595Z,41.95
2023-03-16T20:35:41.888Z,126.07
2023-03-16T20:38:27.276Z,209.85
2023-03-16T20:41:28.542Z,117.35
2023-03-16T20:44:26.828Z,100.20
2023-03-16T20:47:19.350Z,105.18
2023-03-16T20:52:53.641Z,81.80
2023-03-16T20:55:41.087Z,76.07
2023-03-16T20:58:36.025Z,63.20
2023-03-16T21:01:24.737Z,55.75
2023-03-16T21:04:21.063Z,75.82
2023-03-16T21:07:07.005Z,73.15
2023-03-16T21:09:52.813Z,36.47
2023-03-16T21:12:44.326Z,32.88
2023-03-16T21:15:32.281Z,31.23
2023-03-16T21:18:20.667Z,35.38
2023-03-16T21:21:06.530Z,35.42
2023-03-16T21:23:52.275Z,122.97
2023-03-16T21:26:40.124Z,80.20
2023-03-16T21:29:26.302Z,31.52
2023-03-16T21:32:24.290Z,33.80
2023-03-16T21:35:15.635Z,42.45
2023-03-16T21:38:07.376Z,30.33
2023-03-16T21:40:52.887Z,9.57
2023-03-16T21:43:39.584Z,13.13
2023-03-16T21:46:26.453Z,17.10
2023-03-16T21:49:12.145Z,19.60
2023-03-16T21:51:57.854Z,14.90
2023-03-16T21:54:43.231Z,14.77
2023-03-16T21:57:28.856Z,12.60
2023-03-16T22:00:29.501Z,17.65
2023-03-16T22:03:50.400Z,13.80
2023-03-16T22:06:37.685Z,11.93
2023-03-16T22:09:24.958Z,9.88
2023-03-16T22:12:11.801Z,6.75
2023-03-16T22:14:57.423Z,12.93
2023-03-16T22:17:42.888Z,11.02
2023-03-16T22:20:28.876Z,7.47
2023-03-16T22:23:30.209Z,9.88
2023-03-16T22:26:19.201Z,13.27
2023-03-16T22:29:18.071Z,15.77
2023-03-16T22:32:08.512Z,13.45
2023-03-16T22:34:56.634Z,18.15
2023-03-16T22:37:42.286Z,18.83
2023-03-16T22:40:35.574Z,35.78
2023-03-16T22:43:35.344Z,25.55
2023-03-16T22:46:24.004Z,22.83
2023-03-16T22:49:20.176Z,25.65
2023-03-16T22:52:06.207Z,34.63
2023-03-16T22:54:51.420Z,32.72
2023-03-16T22:57:37.044Z,29.52
2023-03-16T23:00:23.087Z,27.95
2023-03-16T23:03:20.869Z,26.23
2023-03-16T23:06:09.077Z,27.80
2023-03-16T23:08:55.541Z,30.48
2023-03-16T23:11:43.590Z,28.10
2023-03-16T23:14:32.862Z,26.90
2023-03-16T23:17:22.249Z,13.45
2023-03-16T23:20:32.700Z,31.88
2023-03-16T23:23:19.376Z,36.58
2023-03-16T23:26:14.689Z,33.08
2023-03-16T23:29:00.685Z,23.70
2023-03-16T23:31:47.524Z,21.45
2023-03-16T23:34:32.876Z,39.90
2023-03-16T23:37:18.344Z,64.38
2023-03-16T23:40:04.233Z,64.72
2023-03-16T23:42:50.138Z,32.67
2023-03-16T23:45:44.750Z,28.65
2023-03-16T23:48:31.687Z,25.50
2023-03-16T23:51:46.894Z,23.95
2023-03-16T23:54:32.803Z,31.98
2023-03-16T23:57:18.203Z,29.35
